createdAt,value
2018-07-20T00:00:06.457Z,13.10
2018-07-20T00:01:13.865Z,13.20
2018-07-20T00:02:21.271Z,13.30
2018-07-20T00:03:28.692Z,13.40
2018-07-20T00:04:36.141Z,13.30
2018-07-20T00:05:43.543Z,13.10
2018-07-20T00:06:50.947Z,12.90
2018-07-20T00:07:58.380Z,12.80
2018-07-20T00:09:05.848Z,13.40
2018-07-20T00:10:13.266Z,13.20
2018-07-20T00:11:20.676Z,13.00
2018-07-20T00:12:28.095Z,12.50
2018-07-20T00:13:35.501Z,12.90
2018-07-20T00:14:42.954Z,13.00
2018-07-20T00:15:50.361Z,12.80
2018-07-20T00:16:57.764Z,12.10
2018-07-20T00:18:05.172Z,12.30
2018-07-20T00:19:12.584Z,12.70
2018-07-20T00:20:20.055Z,12.40
2018-07-20T00:21:27.476Z,13.20
2018-07-20T00:22:34.900Z,13.00
2018-07-20T00:23:42.319Z,12.80
2018-07-20T00:24:49.729Z,13.40
2018-07-20T00:25:57.174Z,13.10
2018-07-20T00:27:04.598Z,12.70
2018-07-20T00:28:12.021Z,12.80
2018-07-20T00:29:19.446Z,12.50
2018-07-20T00:30:27.016Z,12.70
2018-07-20T00:31:34.332Z,13.10
2018-07-20T00:32:41.749Z,12.50
2018-07-20T00:33:49.158Z,12.40
2018-07-20T00:34:56.565Z,12.60
2018-07-20T00:36:04.018Z,12.50
2018-07-20T00:37:11.433Z,12.50
2018-07-20T00:38:18.854Z,12.00
2018-07-20T00:39:26.278Z,12.40
2018-07-20T00:40:33.694Z,12.50
2018-07-20T00:41:41.157Z,12.10
2018-07-20T00:42:48.575Z,13.10
2018-07-20T00:43:55.993Z,13.00
2018-07-20T00:45:03.407Z,12.50
2018-07-20T00:46:10.829Z,12.00
2018-07-20T00:47:18.288Z,12.10
2018-07-20T00:48:25.710Z,11.80
2018-07-20T00:49:33.134Z,12.80
2018-07-20T00:50:40.553Z,12.70
2018-07-20T00:51:48.007Z,11.90
2018-07-20T00:52:55.453Z,12.30
2018-07-20T00:54:02.874Z,11.70
2018-07-20T00:55:10.294Z,11.60
2018-07-20T00:56:18.188Z,12.00
2018-07-20T00:57:25.636Z,12.40
2018-07-20T00:58:33.046Z,12.30
2018-07-20T00:59:40.466Z,11.70
2018-07-20T01:00:47.874Z,11.80
2018-07-20T01:01:55.295Z,12.70
2018-07-20T01:03:02.752Z,11.80
2018-07-20T01:04:10.196Z,12.50
2018-07-20T01:05:17.600Z,11.00
2018-07-20T01:06:25.182Z,12.30
2018-07-20T01:07:32.589Z,11.70
2018-07-20T01:08:40.027Z,11.90
2018-07-20T01:09:47.435Z,12.20
2018-07-20T01:10:54.843Z,12.10
2018-07-20T01:12:02.285Z,11.70
2018-07-20T01:13:09.738Z,11.80
2018-07-20T01:14:17.141Z,12.00
2018-07-20T01:15:24.545Z,12.00
2018-07-20T01:16:31.950Z,11.90
2018-07-20T01:17:39.398Z,11.90
2018-07-20T01:18:46.807Z,12.10
2018-07-20T01:19:54.211Z,11.70
2018-07-20T01:21:01.620Z,11.80
2018-07-20T01:22:09.028Z,11.80
2018-07-20T01:23:16.476Z,11.90
2018-07-20T01:24:23.883Z,11.90
2018-07-20T01:25:31.282Z,11.20
2018-07-20T01:26:38.687Z,11.70
2018-07-20T01:27:46.130Z,11.70
2018-07-20T01:28:53.534Z,11.50
2018-07-20T01:30:00.944Z,11.40
2018-07-20T01:31:08.372Z,11.40
2018-07-20T01:32:15.797Z,11.10
2018-07-20T01:33:23.254Z,11.90
2018-07-20T01:34:30.677Z,11.40
2018-07-20T01:35:38.095Z,11.30
2018-07-20T01:36:45.507Z,11.30
2018-07-20T01:37:52.920Z,11.50
2018-07-20T01:39:00.384Z,10.90
2018-07-20T01:40:07.795Z,12.30
2018-07-20T01:41:15.218Z,11.40
2018-07-20T01:42:22.634Z,11.60
2018-07-20T01:43:30.052Z,10.90
2018-07-20T01:44:37.511Z,11.70
2018-07-20T01:45:44.935Z,11.40
2018-07-20T01:46:52.359Z,12.20
2018-07-20T01:47:59.780Z,11.80
2018-07-20T01:49:07.234Z,11.30
2018-07-20T01:50:14.653Z,11.40
2018-07-20T01:51:22.100Z,11.40
2018-07-20T01:52:29.522Z,11.50
2018-07-20T01:53:36.941Z,11.60
2018-07-20T01:54:44.350Z,11.40
2018-07-20T01:55:51.805Z,11.10
2018-07-20T01:56:59.228Z,11.50
2018-07-20T01:58:06.652Z,10.90
2018-07-20T01:59:14.069Z,10.90
2018-07-20T02:00:21.481Z,10.90
2018-07-20T02:01:28.941Z,11.50
2018-07-20T02:02:36.396Z,10.80
2018-07-20T02:03:43.810Z,10.60
2018-07-20T02:04:51.241Z,11.10
2018-07-20T02:05:58.661Z,11.30
2018-07-20T02:07:06.115Z,11.00
2018-07-20T02:08:13.532Z,11.20
2018-07-20T02:09:20.969Z,11.30
2018-07-20T02:10:28.380Z,11.10
2018-07-20T02:11:35.790Z,11.10
2018-07-20T02:12:43.198Z,10.40
2018-07-20T02:13:50.604Z,11.00
2018-07-20T02:14:58.045Z,11.50
2018-07-20T02:16:05.455Z,10.80
2018-07-20T02:17:12.855Z,10.80
2018-07-20T02:18:20.265Z,11.20
2018-07-20T02:19:27.714Z,10.80
2018-07-20T02:20:35.120Z,11.10
2018-07-20T02:21:42.533Z,11.50
2018-07-20T02:22:49.936Z,10.50
2018-07-20T02:23:57.374Z,11.00
2018-07-20T02:25:04.776Z,11.00
2018-07-20T02:26:12.180Z,11.20
2018-07-20T02:27:19.593Z,10.90
2018-07-20T02:28:27.032Z,10.50
2018-07-20T02:29:34.621Z,11.00
2018-07-20T02:30:41.892Z,10.60
2018-07-20T02:31:49.311Z,10.40
2018-07-20T02:32:56.719Z,10.90
2018-07-20T02:34:04.165Z,10.50
2018-07-20T02:35:11.658Z,10.40
2018-07-20T02:36:19.074Z,10.90
2018-07-20T02:37:26.489Z,11.00
2018-07-20T02:38:33.896Z,10.20
2018-07-20T02:39:41.304Z,10.70
2018-07-20T02:40:48.745Z,10.40
2018-07-20T02:41:56.151Z,11.10
2018-07-20T02:43:03.588Z,10.20
2018-07-20T02:44:11.002Z,10.30
2018-07-20T02:45:18.414Z,10.20
2018-07-20T02:46:26.171Z,11.00
2018-07-20T02:47:33.587Z,10.60
2018-07-20T02:48:41.004Z,10.60
2018-07-20T02:49:48.425Z,10.40
2018-07-20T02:50:55.855Z,10.30
2018-07-20T02:52:03.664Z,10.20
2018-07-20T02:53:11.074Z,9.90
2018-07-20T02:54:18.498Z,9.90
2018-07-20T02:55:25.920Z,10.00
2018-07-20T02:56:33.349Z,9.90
2018-07-20T02:57:40.806Z,10.10
2018-07-20T02:58:48.263Z,10.10
2018-07-20T02:59:55.686Z,10.00
2018-07-20T03:01:03.106Z,10.50
2018-07-20T03:02:10.527Z,10.30
2018-07-20T03:03:17.950Z,10.40
2018-07-20T03:04:25.415Z,10.60
2018-07-20T03:05:32.867Z,10.30
2018-07-20T03:06:40.275Z,10.30
2018-07-20T03:07:47.697Z,9.90
2018-07-20T03:08:55.194Z,10.10
2018-07-20T03:10:02.523Z,10.40
2018-07-20T03:11:09.977Z,10.50
2018-07-20T03:12:17.441Z,9.80
2018-07-20T03:13:24.862Z,10.10
2018-07-20T03:14:32.284Z,9.80
2018-07-20T03:15:39.701Z,10.30
2018-07-20T03:16:47.115Z,9.60
2018-07-20T03:17:54.572Z,10.30
2018-07-20T03:19:01.986Z,10.50
2018-07-20T03:20:09.392Z,9.60
2018-07-20T03:21:16.798Z,9.70
2018-07-20T03:22:24.235Z,10.00
2018-07-20T03:23:31.678Z,9.80
2018-07-20T03:24:39.079Z,9.60
2018-07-20T03:25:46.498Z,10.80
2018-07-20T03:26:53.950Z,9.90
2018-07-20T03:28:01.357Z,10.20
2018-07-20T03:29:08.776Z,9.80
2018-07-20T03:30:16.185Z,10.40
2018-07-20T03:31:23.589Z,9.90
2018-07-20T03:32:31.030Z,9.60
2018-07-20T03:33:38.447Z,10.30
2018-07-20T03:34:45.870Z,9.90
2018-07-20T03:35:53.312Z,9.80
2018-07-20T03:37:00.719Z,10.00
2018-07-20T03:38:08.121Z,9.80
2018-07-20T03:39:15.567Z,9.60
2018-07-20T03:40:22.969Z,9.70
2018-07-20T03:41:30.376Z,9.80
2018-07-20T03:42:37.823Z,9.70
2018-07-20T03:43:45.232Z,10.20
2018-07-20T03:44:52.639Z,9.40
2018-07-20T03:46:00.049Z,9.80
2018-07-20T03:47:07.456Z,9.80
2018-07-20T03:48:15.134Z,9.80
2018-07-20T03:49:22.578Z,10.00
2018-07-20T03:50:29.990Z,9.90
2018-07-20T03:51:37.399Z,9.70
2018-07-20T03:52:44.853Z,9.70
2018-07-20T03:53:52.242Z,9.50
2018-07-20T03:54:59.664Z,9.50
2018-07-20T03:56:07.082Z,9.60
2018-07-20T03:57:14.504Z,9.60
2018-07-20T03:58:21.956Z,9.60
2018-07-20T03:59:29.365Z,9.10
2018-07-20T04:00:36.772Z,9.30
2018-07-20T04:01:44.235Z,9.40
2018-07-20T04:02:51.658Z,9.50
2018-07-20T04:03:59.075Z,9.60
2018-07-20T04:05:06.491Z,9.60
2018-07-20T04:06:13.905Z,9.60
2018-07-20T04:07:21.373Z,9.40
2018-07-20T04:08:28.803Z,9.50
2018-07-20T04:09:36.226Z,9.40
2018-07-20T04:10:43.628Z,9.60
2018-07-20T04:11:51.040Z,8.90
2018-07-20T04:12:58.493Z,9.90
2018-07-20T04:14:05.900Z,9.70
2018-07-20T04:15:13.323Z,9.80
2018-07-20T04:16:20.749Z,9.70
2018-07-20T04:17:28.228Z,9.60
2018-07-20T04:18:35.648Z,9.40
2018-07-20T04:19:43.066Z,9.60
2018-07-20T04:20:50.483Z,9.00
2018-07-20T04:21:57.908Z,9.20
2018-07-20T04:23:05.372Z,9.40
2018-07-20T04:24:12.796Z,9.00
2018-07-20T04:25:20.213Z,9.30
2018-07-20T04:26:27.635Z,9.10
2018-07-20T04:27:35.091Z,9.00
2018-07-20T04:28:42.513Z,8.70
2018-07-20T04:29:49.921Z,9.00
2018-07-20T04:30:57.331Z,9.30
2018-07-20T04:32:04.767Z,9.90
2018-07-20T04:33:12.172Z,9.50
2018-07-20T04:34:19.576Z,9.20
2018-07-20T04:35:27.121Z,9.40
2018-07-20T04:36:34.528Z,9.00
2018-07-20T04:37:41.937Z,9.20
2018-07-20T04:38:49.397Z,9.30
2018-07-20T04:39:56.800Z,9.10
2018-07-20T04:41:04.217Z,9.20
2018-07-20T04:42:11.635Z,8.80
2018-07-20T04:43:19.037Z,8.90
2018-07-20T04:44:26.482Z,8.70
2018-07-20T04:45:33.888Z,8.60
2018-07-20T04:46:41.302Z,9.30
2018-07-20T04:47:48.706Z,9.00
2018-07-20T04:48:56.631Z,8.90
2018-07-20T04:50:04.076Z,8.80
2018-07-20T04:51:11.455Z,9.30
2018-07-20T04:52:18.859Z,9.00
2018-07-20T04:53:26.266Z,9.10
2018-07-20T04:54:33.716Z,8.50
2018-07-20T04:55:41.157Z,8.80
2018-07-20T04:56:48.579Z,9.20
2018-07-20T04:57:55.982Z,8.80
2018-07-20T04:59:03.391Z,8.80
2018-07-20T05:00:10.798Z,8.60
2018-07-20T05:01:18.240Z,8.20
2018-07-20T05:02:25.649Z,8.60
2018-07-20T05:03:33.067Z,9.20
2018-07-20T05:04:40.474Z,8.70
2018-07-20T05:05:47.951Z,8.90
2018-07-20T05:06:55.353Z,9.00
2018-07-20T05:08:02.778Z,8.70
2018-07-20T05:09:10.194Z,8.80
2018-07-20T05:10:17.637Z,8.80
2018-07-20T05:11:25.141Z,8.50
2018-07-20T05:12:32.504Z,8.50
2018-07-20T05:13:39.915Z,8.70
2018-07-20T05:14:47.332Z,8.90
2018-07-20T05:15:54.793Z,8.20
2018-07-20T05:17:02.205Z,8.30
2018-07-20T05:18:09.629Z,8.60
2018-07-20T05:19:17.049Z,8.30
2018-07-20T05:20:24.467Z,8.80
2018-07-20T05:21:31.922Z,8.90
2018-07-20T05:22:39.341Z,8.50
2018-07-20T05:23:46.748Z,8.70
2018-07-20T05:24:54.156Z,8.80
2018-07-20T05:26:01.614Z,8.90
2018-07-20T05:27:09.047Z,9.00
2018-07-20T05:28:16.465Z,8.40
2018-07-20T05:29:23.926Z,8.50
2018-07-20T05:30:31.347Z,8.30
2018-07-20T05:31:38.790Z,8.80
2018-07-20T05:32:46.240Z,8.70
2018-07-20T05:33:53.658Z,8.60
2018-07-20T05:35:01.103Z,8.60
2018-07-20T05:36:08.562Z,8.70
2018-07-20T05:37:15.984Z,8.50
2018-07-20T05:38:23.407Z,8.30
2018-07-20T05:39:30.831Z,8.50
2018-07-20T05:40:38.241Z,8.60
2018-07-20T05:41:45.684Z,8.20
2018-07-20T05:42:53.094Z,8.60
2018-07-20T05:44:00.560Z,8.10
2018-07-20T05:45:07.907Z,9.00
2018-07-20T05:46:15.616Z,8.20
2018-07-20T05:47:23.021Z,8.10
2018-07-20T05:48:30.426Z,8.40
2018-07-20T05:49:37.834Z,8.40
2018-07-20T05:50:45.242Z,8.10
2018-07-20T05:51:52.689Z,8.40
2018-07-20T05:53:00.098Z,8.20
2018-07-20T05:54:07.514Z,8.40
2018-07-20T05:55:14.974Z,8.40
2018-07-20T05:56:22.393Z,8.10
2018-07-20T05:57:29.824Z,7.80
2018-07-20T05:58:37.240Z,8.40
2018-07-20T05:59:44.660Z,8.70
2018-07-20T06:00:52.121Z,8.10
2018-07-20T06:01:59.544Z,7.90
2018-07-20T06:03:06.969Z,7.90
2018-07-20T06:04:14.393Z,7.70
2018-07-20T06:05:21.844Z,8.40
2018-07-20T06:06:29.261Z,8.40
2018-07-20T06:07:36.723Z,8.30
2018-07-20T06:08:44.166Z,8.20
2018-07-20T06:09:51.557Z,8.10
2018-07-20T06:10:58.977Z,7.90
2018-07-20T06:12:06.402Z,7.80
2018-07-20T06:13:13.858Z,7.90
2018-07-20T06:14:21.283Z,8.60
2018-07-20T06:15:29.105Z,8.00
2018-07-20T06:16:36.565Z,8.20
2018-07-20T06:17:43.966Z,8.20
2018-07-20T06:18:51.436Z,8.20
2018-07-20T06:19:58.825Z,8.20
2018-07-20T06:21:06.295Z,8.20
2018-07-20T06:22:13.711Z,8.20
2018-07-20T06:23:21.130Z,8.10
2018-07-20T06:24:28.553Z,8.60
2018-07-20T06:25:35.979Z,7.70
2018-07-20T06:26:43.607Z,7.80
2018-07-20T06:27:51.042Z,8.20
2018-07-20T06:28:58.481Z,8.20
2018-07-20T06:30:05.919Z,8.30
2018-07-20T06:31:13.350Z,7.60
2018-07-20T06:32:20.827Z,7.60
2018-07-20T06:33:28.263Z,7.80
2018-07-20T06:34:35.699Z,7.90
2018-07-20T06:35:43.135Z,7.80
2018-07-20T06:36:50.576Z,7.60
2018-07-20T06:37:58.044Z,8.10
2018-07-20T06:39:05.520Z,7.70
2018-07-20T06:40:12.939Z,7.60
2018-07-20T06:41:20.403Z,7.90
2018-07-20T06:42:27.837Z,8.00
2018-07-20T06:43:35.272Z,8.20
2018-07-20T06:44:42.708Z,7.90
2018-07-20T06:45:50.143Z,8.30
2018-07-20T06:46:58.108Z,8.50
2018-07-20T06:48:05.541Z,8.10
2018-07-20T06:49:12.965Z,7.90
2018-07-20T06:50:20.399Z,8.10
2018-07-20T06:51:27.825Z,8.10
2018-07-20T06:52:35.303Z,7.90
2018-07-20T06:53:42.729Z,8.10
2018-07-20T06:54:50.159Z,7.80
2018-07-20T06:55:57.593Z,7.80
2018-07-20T06:57:05.006Z,8.20
2018-07-20T06:58:12.473Z,8.20
2018-07-20T06:59:19.890Z,7.80
2018-07-20T07:00:27.311Z,7.30
2018-07-20T07:01:34.728Z,7.40
2018-07-20T07:02:42.144Z,7.70
2018-07-20T07:03:49.602Z,7.60
2018-07-20T07:04:57.018Z,7.90
2018-07-20T07:06:04.437Z,7.60
2018-07-20T07:07:11.858Z,7.90
2018-07-20T07:08:19.280Z,7.80
2018-07-20T07:09:26.776Z,7.60
2018-07-20T07:10:34.187Z,7.60
2018-07-20T07:11:41.610Z,8.50
2018-07-20T07:12:49.041Z,8.30
2018-07-20T07:13:56.492Z,7.70
2018-07-20T07:15:03.954Z,8.10
2018-07-20T07:16:11.399Z,8.00
2018-07-20T07:17:18.855Z,8.10
2018-07-20T07:18:26.278Z,8.20
2018-07-20T07:19:33.699Z,8.20
2018-07-20T07:20:41.165Z,8.00
2018-07-20T07:21:48.596Z,7.80
2018-07-20T07:22:56.023Z,7.90
2018-07-20T07:24:03.504Z,8.00
2018-07-20T07:25:10.956Z,8.10
2018-07-20T07:26:18.381Z,8.20
2018-07-20T07:27:25.809Z,7.70
2018-07-20T07:28:33.236Z,8.30
2018-07-20T07:29:40.701Z,7.60
2018-07-20T07:30:48.133Z,8.10
2018-07-20T07:31:55.559Z,8.10
2018-07-20T07:33:03.034Z,8.10
2018-07-20T07:34:10.468Z,8.20
2018-07-20T07:35:17.905Z,8.60
2018-07-20T07:36:25.342Z,7.80
2018-07-20T07:37:32.777Z,8.30
2018-07-20T07:38:40.249Z,7.90
2018-07-20T07:39:47.682Z,7.90
2018-07-20T07:40:55.105Z,8.30
2018-07-20T07:42:02.537Z,8.30
2018-07-20T07:43:09.947Z,8.00
2018-07-20T07:44:17.416Z,7.40
2018-07-20T07:45:24.846Z,8.50
2018-07-20T07:46:32.278Z,8.80
2018-07-20T07:47:39.699Z,7.90
2018-07-20T07:48:47.178Z,8.00
2018-07-20T07:49:54.613Z,8.00
2018-07-20T07:51:02.050Z,8.60
2018-07-20T07:52:09.486Z,7.90
2018-07-20T07:53:16.926Z,9.20
2018-07-20T07:54:24.388Z,8.60
2018-07-20T07:55:31.812Z,7.90
2018-07-20T07:56:39.250Z,8.80
2018-07-20T07:57:46.730Z,8.90
2018-07-20T07:58:54.173Z,8.30
2018-07-20T08:00:01.607Z,8.40
2018-07-20T08:01:09.039Z,8.50
2018-07-20T08:02:16.465Z,8.80
2018-07-20T08:03:23.941Z,8.70
2018-07-20T08:04:31.358Z,8.40
2018-07-20T08:05:38.771Z,8.20
2018-07-20T08:06:46.230Z,8.50
2018-07-20T08:07:53.649Z,8.20
2018-07-20T08:09:01.063Z,8.30
2018-07-20T08:10:08.565Z,8.60
2018-07-20T08:11:15.898Z,9.00
2018-07-20T08:12:23.353Z,8.70
2018-07-20T08:13:30.770Z,9.20
2018-07-20T08:14:38.220Z,9.30
2018-07-20T08:15:45.691Z,9.20
2018-07-20T08:16:53.067Z,9.20
2018-07-20T08:18:00.535Z,13.10
2018-07-20T08:19:07.953Z,9.90
2018-07-20T08:20:15.369Z,10.00
2018-07-20T08:21:22.793Z,10.30
2018-07-20T08:22:30.211Z,10.10
2018-07-20T08:23:37.674Z,9.70
2018-07-20T08:24:45.125Z,9.40
2018-07-20T08:25:52.339Z,9.50
2018-07-20T08:26:59.754Z,9.30
2018-07-20T08:28:07.176Z,9.60
2018-07-20T08:29:14.587Z,9.80
2018-07-20T08:30:22.050Z,10.00
2018-07-20T08:31:29.482Z,9.90
2018-07-20T08:32:36.919Z,10.30
2018-07-20T08:33:44.340Z,10.40
2018-07-20T08:34:51.762Z,10.30
2018-07-20T08:35:59.211Z,10.20
2018-07-20T08:37:06.677Z,12.10
2018-07-20T08:38:14.099Z,11.20
2018-07-20T08:39:21.548Z,10.60
2018-07-20T08:40:28.995Z,11.00
2018-07-20T08:41:36.440Z,11.20
2018-07-20T08:42:43.903Z,11.50
2018-07-20T08:43:51.387Z,11.00
2018-07-20T08:44:58.810Z,12.00
2018-07-20T08:46:06.245Z,12.90
2018-07-20T08:47:13.672Z,12.50
2018-07-20T08:47:59.517Z,10.40
2018-07-20T08:56:11.528Z,14.70
2018-07-20T08:57:19.015Z,12.80
2018-07-20T08:58:26.516Z,14.80
2018-07-20T08:59:33.920Z,15.30
2018-07-20T09:00:41.392Z,15.90
2018-07-20T09:01:48.843Z,14.20
2018-07-20T09:02:56.238Z,14.60
2018-07-20T09:04:03.671Z,14.80
2018-07-20T09:05:11.065Z,13.90
2018-07-20T09:06:18.480Z,14.00
2018-07-20T09:07:25.880Z,15.80
2018-07-20T09:08:33.319Z,16.30
2018-07-20T09:09:40.746Z,14.10
2018-07-20T09:10:48.134Z,15.50
2018-07-20T09:11:55.556Z,15.10
2018-07-20T09:13:02.967Z,18.20
2018-07-20T09:14:10.408Z,14.90
2018-07-20T09:15:17.784Z,15.40
2018-07-20T09:16:25.192Z,14.20
2018-07-20T09:17:32.583Z,17.10
2018-07-20T09:18:39.971Z,17.60
2018-07-20T09:19:47.370Z,14.50
2018-07-20T09:20:54.871Z,15.30
2018-07-20T09:22:02.233Z,15.00
2018-07-20T09:23:09.641Z,16.00
2018-07-20T09:24:17.071Z,16.60
2018-07-20T09:25:24.493Z,15.30
2018-07-20T09:26:57.931Z,15.70
2018-07-20T09:28:05.490Z,15.50
2018-07-20T09:29:12.929Z,16.60
2018-07-20T09:30:20.369Z,15.50
2018-07-20T09:31:27.861Z,15.90
2018-07-20T09:32:35.306Z,15.80
2018-07-20T09:33:42.763Z,15.70
2018-07-20T09:34:50.205Z,18.30
2018-07-20T09:35:57.666Z,16.00
2018-07-20T09:37:05.234Z,17.00
2018-07-20T09:38:12.654Z,15.90
2018-07-20T09:39:20.084Z,17.40
2018-07-20T09:40:27.562Z,16.00
2018-07-20T09:41:34.992Z,14.60
2018-07-20T09:42:42.454Z,16.10
2018-07-20T09:43:49.962Z,15.20
2018-07-20T09:44:57.385Z,17.60
2018-07-20T09:46:05.609Z,14.20
2018-07-20T09:47:13.071Z,15.80
2018-07-20T09:48:20.602Z,17.20
2018-07-20T09:49:28.026Z,14.90
2018-07-20T09:50:35.441Z,15.70
2018-07-20T09:51:43.047Z,14.80
2018-07-20T09:52:50.612Z,15.30
2018-07-20T09:53:58.025Z,14.60
2018-07-20T09:55:05.510Z,14.10
2018-07-20T09:56:12.932Z,14.40
2018-07-20T09:57:20.463Z,15.10
2018-07-20T09:58:27.886Z,14.40
2018-07-20T09:59:35.472Z,15.30
2018-07-20T10:00:42.723Z,14.20
2018-07-20T10:01:50.194Z,14.70
2018-07-20T10:02:57.613Z,14.60
2018-07-20T10:04:05.028Z,15.20
2018-07-20T10:05:12.447Z,14.30
2018-07-20T10:06:19.884Z,14.20
2018-07-20T10:07:27.334Z,14.30
2018-07-20T10:08:34.750Z,14.60
2018-07-20T10:09:42.163Z,15.00
2018-07-20T10:10:49.581Z,14.60
2018-07-20T10:11:56.988Z,14.80
2018-07-20T10:13:04.436Z,14.80
2018-07-20T10:14:11.852Z,14.50
2018-07-20T10:15:19.046Z,14.30
2018-07-20T10:16:26.453Z,13.50
2018-07-20T10:17:33.852Z,18.20
2018-07-20T10:18:41.300Z,13.50
2018-07-20T10:19:48.719Z,13.90
2018-07-20T10:20:56.162Z,15.00
2018-07-20T10:22:03.602Z,14.30
2018-07-20T10:23:11.103Z,14.10
2018-07-20T10:24:18.511Z,13.90
2018-07-20T10:25:26.009Z,13.80
2018-07-20T10:26:33.422Z,14.10
2018-07-20T10:27:40.886Z,14.90
2018-07-20T10:28:48.359Z,12.90
2018-07-20T10:29:55.864Z,13.00
2018-07-20T10:31:03.288Z,14.20
2018-07-20T10:32:10.748Z,13.10
2018-07-20T10:33:18.220Z,13.40
2018-07-20T10:34:25.697Z,13.00
2018-07-20T10:35:15.235Z,11.90
2018-07-20T10:36:22.667Z,13.70
2018-07-20T10:37:30.103Z,13.30
2018-07-20T10:38:37.605Z,13.80
2018-07-20T10:39:45.060Z,14.00
2018-07-20T10:40:52.522Z,12.90
2018-07-20T10:41:59.950Z,15.90
2018-07-20T10:43:07.423Z,13.60
2018-07-20T10:44:14.848Z,12.90
2018-07-20T10:45:22.279Z,13.20
2018-07-20T10:46:29.820Z,13.40
2018-07-20T10:47:37.284Z,13.70
2018-07-20T10:48:44.825Z,14.30
2018-07-20T10:49:52.840Z,11.90
2018-07-20T10:51:00.413Z,12.90
2018-07-20T10:52:08.001Z,12.90
2018-07-20T10:53:15.525Z,12.10
2018-07-20T10:54:22.974Z,13.60
2018-07-20T10:55:30.449Z,12.10
2018-07-20T10:56:37.907Z,12.00
2018-07-20T10:57:45.424Z,12.70
2018-07-20T10:58:52.850Z,11.30
2018-07-20T11:00:00.318Z,11.50
2018-07-20T11:01:07.848Z,11.30
2018-07-20T11:02:15.316Z,12.20
2018-07-20T11:03:22.758Z,11.30
2018-07-20T11:04:30.191Z,13.60
2018-07-20T11:05:37.602Z,11.70
2018-07-20T11:06:45.068Z,11.40
2018-07-20T11:07:52.520Z,12.30
2018-07-20T11:08:59.904Z,15.70
2018-07-20T11:10:07.332Z,12.60
2018-07-20T11:11:14.798Z,12.70
2018-07-20T11:12:22.241Z,12.00
2018-07-20T11:13:29.668Z,11.40
2018-07-20T11:14:37.133Z,11.60
2018-07-20T11:15:48.297Z,9.10
2018-07-20T11:16:17.209Z,13.30
2018-07-20T11:17:24.712Z,12.80
2018-07-20T11:18:32.143Z,13.30
2018-07-20T11:19:39.604Z,11.60
2018-07-20T11:20:47.029Z,11.90
2018-07-20T11:21:54.454Z,11.30
2018-07-20T11:23:01.977Z,12.00
2018-07-20T11:24:09.416Z,12.80
2018-07-20T11:25:16.865Z,11.60
2018-07-20T11:26:24.333Z,11.80
2018-07-20T11:27:31.767Z,12.00
2018-07-20T11:28:39.201Z,13.60
2018-07-20T11:29:46.674Z,11.50
2018-07-20T11:30:12.161Z,12.00
2018-07-20T11:31:11.363Z,11.60
2018-07-20T11:32:10.332Z,13.50
2018-07-20T11:33:17.840Z,14.60
2018-07-20T11:34:25.425Z,11.60
2018-07-20T11:35:32.835Z,13.00
2018-07-20T11:36:40.244Z,13.80
2018-07-20T11:37:47.654Z,11.30
2018-07-20T11:38:55.048Z,11.60
2018-07-20T11:40:02.481Z,11.60
2018-07-20T11:41:09.892Z,14.30
2018-07-20T11:42:17.288Z,12.00
2018-07-20T11:43:24.694Z,13.50
2018-07-20T11:44:32.130Z,13.20
2018-07-20T11:45:39.612Z,11.60
2018-07-20T11:46:47.010Z,11.10
2018-07-20T11:47:54.425Z,11.40
2018-07-20T11:49:01.830Z,10.90
2018-07-20T11:50:09.352Z,11.40
2018-07-20T11:51:16.788Z,11.60
2018-07-20T11:52:24.276Z,14.90
2018-07-20T11:53:31.705Z,13.70
2018-07-20T11:54:39.151Z,11.60
2018-07-20T11:55:46.660Z,11.70
2018-07-20T11:56:54.051Z,10.70
2018-07-20T11:58:01.468Z,11.70
2018-07-20T11:59:08.897Z,12.90
2018-07-20T12:00:16.319Z,11.20
2018-07-20T12:01:23.820Z,11.30
2018-07-20T12:02:31.212Z,12.50
2018-07-20T12:03:38.625Z,10.70
2018-07-20T12:04:46.051Z,12.70
2018-07-20T12:05:53.471Z,11.60
2018-07-20T12:07:00.924Z,10.60
2018-07-20T12:08:08.331Z,10.80
2018-07-20T12:09:15.756Z,11.00
2018-07-20T12:10:23.199Z,11.00
2018-07-20T12:11:30.632Z,10.50
2018-07-20T12:12:38.054Z,10.70
2018-07-20T12:13:45.457Z,12.70
2018-07-20T12:14:52.859Z,10.50
2018-07-20T12:16:00.273Z,10.90
2018-07-20T12:17:08.053Z,12.20
2018-07-20T12:18:15.497Z,11.00
2018-07-20T12:19:22.903Z,9.80
2018-07-20T12:20:30.377Z,11.00
2018-07-20T12:21:37.782Z,11.00
2018-07-20T12:22:47.240Z,13.50
2018-07-20T12:23:54.639Z,10.90
2018-07-20T12:25:02.083Z,11.90
2018-07-20T12:26:09.488Z,11.30
2018-07-20T12:27:16.890Z,10.60
2018-07-20T12:29:19.009Z,8.80
2018-07-20T12:30:26.523Z,9.70
2018-07-20T12:31:34.045Z,9.90
2018-07-20T12:32:41.460Z,12.90
2018-07-20T12:33:48.883Z,11.00
2018-07-20T12:34:56.335Z,10.80
2018-07-20T12:36:03.789Z,11.00
2018-07-20T12:37:11.208Z,11.50
2018-07-20T12:38:18.680Z,10.00
2018-07-20T12:39:26.113Z,10.20
2018-07-20T12:40:33.559Z,10.70
2018-07-20T12:41:41.037Z,10.80
2018-07-20T12:42:48.317Z,11.10
2018-07-20T12:43:55.775Z,10.10
2018-07-20T12:45:03.294Z,10.70
2018-07-20T12:46:10.719Z,10.00
2018-07-20T12:47:18.172Z,13.50
2018-07-20T12:48:25.590Z,9.70
2018-07-20T12:49:33.102Z,11.60
2018-07-20T12:50:40.523Z,10.30
2018-07-20T12:51:47.952Z,10.10
2018-07-20T12:52:55.422Z,11.60
2018-07-20T12:54:02.906Z,10.20
2018-07-20T12:55:10.361Z,10.60
2018-07-20T12:56:17.827Z,9.70
2018-07-20T12:57:25.275Z,10.00
2018-07-20T12:58:32.805Z,10.60
2018-07-20T12:59:40.171Z,11.40
2018-07-20T13:00:47.608Z,9.60
2018-07-20T13:01:55.258Z,9.40
2018-07-20T13:03:02.688Z,11.00
2018-07-20T13:04:10.159Z,10.00
2018-07-20T13:05:17.547Z,10.50
2018-07-20T13:06:24.979Z,9.40
2018-07-20T13:07:32.451Z,9.50
2018-07-20T13:08:39.884Z,10.10
2018-07-20T13:09:47.318Z,9.60
2018-07-20T13:10:54.752Z,9.40
2018-07-20T13:12:02.314Z,9.40
2018-07-20T13:13:09.672Z,9.40
2018-07-20T13:14:17.095Z,9.50
2018-07-20T13:15:24.524Z,9.60
2018-07-20T13:16:31.996Z,9.70
2018-07-20T13:17:39.500Z,10.80
2018-07-20T13:18:46.923Z,10.30
2018-07-20T13:19:54.378Z,9.60
2018-07-20T13:21:01.809Z,11.10
2018-07-20T13:22:09.308Z,11.60
2018-07-20T13:23:16.775Z,10.20
2018-07-20T13:24:24.233Z,10.30
2018-07-20T13:25:31.646Z,10.90
2018-07-20T13:26:39.103Z,10.90
2018-07-20T13:27:46.550Z,10.40
2018-07-20T13:28:53.997Z,10.60
2018-07-20T13:30:01.423Z,11.60
2018-07-20T13:31:08.641Z,10.50
2018-07-20T13:32:16.057Z,10.50
2018-07-20T13:33:23.507Z,10.30
2018-07-20T13:34:30.960Z,10.60
2018-07-20T13:35:38.384Z,10.40
2018-07-20T13:36:45.804Z,9.80
2018-07-20T13:37:53.266Z,10.70
2018-07-20T13:39:00.684Z,10.30
2018-07-20T13:40:08.103Z,10.70
2018-07-20T13:41:15.563Z,10.80
2018-07-20T13:42:22.997Z,11.50
2018-07-20T13:43:30.426Z,10.80
2018-07-20T13:44:37.863Z,12.50
2018-07-20T13:45:45.331Z,10.40
2018-07-20T13:46:52.753Z,11.80
2018-07-20T13:48:00.185Z,11.70
2018-07-20T13:49:07.598Z,11.40
2018-07-20T13:50:15.042Z,10.60
2018-07-20T13:51:22.494Z,10.00
2018-07-20T13:52:29.969Z,11.00
2018-07-20T13:53:37.430Z,10.10
2018-07-20T13:54:44.933Z,10.70
2018-07-20T13:55:52.351Z,10.20
2018-07-20T13:56:59.807Z,10.60
2018-07-20T13:58:07.227Z,10.40
2018-07-20T13:59:19.274Z,20.10
2018-07-20T14:00:26.730Z,12.70
2018-07-20T14:01:34.167Z,13.60
2018-07-20T14:02:41.572Z,11.40
2018-07-20T14:03:49.056Z,10.70
2018-07-20T14:04:56.479Z,10.40
2018-07-20T14:06:03.906Z,13.60
2018-07-20T14:07:11.319Z,10.60
2018-07-20T14:08:18.794Z,10.00
2018-07-20T14:09:26.337Z,10.60
2018-07-20T14:10:33.797Z,10.10
2018-07-20T14:11:41.518Z,11.40
2018-07-20T14:12:48.975Z,10.40
2018-07-20T14:13:56.406Z,9.90
2018-07-20T14:15:03.923Z,10.70
2018-07-20T14:16:11.351Z,11.90
2018-07-20T14:17:18.801Z,12.80
2018-07-20T14:18:26.245Z,11.10
2018-07-20T14:19:33.776Z,14.90
2018-07-20T14:20:41.192Z,11.00
2018-07-20T14:21:48.697Z,11.40
2018-07-20T14:22:56.114Z,15.00
2018-07-20T14:24:03.642Z,10.00
2018-07-20T14:25:11.075Z,11.20
2018-07-20T14:26:18.536Z,11.40
2018-07-20T14:27:25.960Z,12.10
2018-07-20T14:28:33.381Z,11.30
2018-07-20T14:29:40.801Z,10.20
2018-07-20T14:30:48.219Z,9.60
2018-07-20T14:31:55.753Z,10.30
2018-07-20T14:33:03.086Z,10.70
2018-07-20T14:34:10.502Z,11.60
2018-07-20T14:35:34.361Z,9.00
2018-07-20T14:36:41.814Z,12.00
2018-07-20T14:37:49.232Z,12.00
2018-07-20T14:38:56.638Z,9.70
2018-07-20T14:40:04.078Z,10.80
2018-07-20T14:41:11.592Z,9.30
2018-07-20T14:42:19.011Z,10.10
2018-07-20T14:43:26.482Z,10.60
2018-07-20T14:44:33.912Z,10.30
2018-07-20T14:45:41.372Z,10.10